Time;durP1;ratioP1;P1;durP2;ratioP2;P2;SDS_P1;SDS_P2;PMS_P1;PMS_P2;Temp;Humidity;BMP_temperature;BMP_pressure;BME280_temperature;BME280_humidity;BME280_pressure;Samples;Min_cycle;Max_cycle;Signal;HPM_P1;HPM_P2
2022/06/11 00:01:53;;;;;;;2.43;2.33;;;15.00;99.90;;;;;;5041447;28;20194;-51
2022/06/11 00:04:25;;;;;;;2.53;2.30;;;14.90;99.90;;;;;;5040715;28;20614;-51
2022/06/11 00:06:54;;;;;;;2.93;1.90;;;14.90;99.90;;;;;;5041959;28;20212;-50
2022/06/11 00:09:23;;;;;;;2.17;2.07;;;14.90;99.90;;;;;;5045122;28;20253;-50
2022/06/11 00:11:51;;;;;;;2.27;2.17;;;14.80;99.90;;;;;;5042353;28;20195;-51
2022/06/11 00:14:20;;;;;;;2.20;2.10;;;14.70;99.90;;;;;;5051207;28;20212;-50
2022/06/11 00:16:47;;;;;;;2.83;2.63;;;14.80;99.90;;;;;;5050530;28;20222;-50
2022/06/11 00:19:15;;;;;;;2.40;2.30;;;14.70;99.90;;;;;;5046606;28;20653;-51
2022/06/11 00:21:44;;;;;;;2.17;2.07;;;14.70;99.90;;;;;;5051943;28;20201;-51
2022/06/11 00:24:12;;;;;;;2.13;2.07;;;14.70;99.90;;;;;;5045939;28;20193;-51
2022/06/11 00:26:39;;;;;;;2.47;2.17;;;14.60;99.90;;;;;;5054475;28;20202;-52
2022/06/11 00:29:07;;;;;;;3.43;2.33;;;14.70;99.90;;;;;;5051084;28;20218;-50
2022/06/11 00:31:34;;;;;;;3.30;3.10;;;14.70;99.90;;;;;;5043450;28;20261;-51
2022/06/11 00:34:02;;;;;;;14.77;4.53;;;14.70;99.90;;;;;;5046554;28;20260;-51
2022/06/11 00:36:31;;;;;;;3.33;3.13;;;14.60;99.90;;;;;;5048467;28;20601;-51
2022/06/11 00:38:59;;;;;;;2.50;2.37;;;14.60;99.90;;;;;;5052891;28;20202;-50
2022/06/11 00:41:28;;;;;;;3.17;3.00;;;14.60;99.90;;;;;;5044633;28;20594;-51
2022/06/11 00:43:55;;;;;;;3.33;3.13;;;14.50;99.90;;;;;;5035773;28;20560;-51
2022/06/11 00:46:50;;;;;;;2.97;2.77;;;14.40;99.90;;;;;;5039645;28;20251;-51
2022/06/11 00:49:45;;;;;;;3.53;3.03;;;14.40;99.90;;;;;;5046517;28;20217;-50
2022/06/11 00:52:28;;;;;;;3.50;3.30;;;14.30;99.90;;;;;;4991539;28;20202;-50
2022/06/11 00:55:00;;;;;;;2.60;2.50;;;14.30;99.90;;;;;;5054463;28;20295;-50
2022/06/11 00:57:31;;;;;;;3.37;3.17;;;14.30;99.90;;;;;;5054100;28;20217;-51
2022/06/11 01:00:03;;;;;;;4.20;3.40;;;14.20;99.90;;;;;;5050807;28;20312;-50
2022/06/11 01:02:30;;;;;;;3.50;3.37;;;14.20;99.90;;;;;;5033502;28;20194;-51
2022/06/11 01:05:00;;;;;;;2.73;2.63;;;14.20;99.90;;;;;;5051883;28;20278;-52
2022/06/11 01:07:47;;;;;;;3.43;3.23;;;14.10;99.90;;;;;;5053636;28;20202;-51
2022/06/11 01:10:29;;;;;;;2.73;2.63;;;14.10;99.90;;;;;;5048536;28;20726;-52
2022/06/11 01:13:05;;;;;;;3.53;2.70;;;14.00;99.90;;;;;;5046113;28;20295;-52
2022/06/11 01:15:37;;;;;;;2.90;2.80;;;14.10;99.90;;;;;;5040025;28;20201;-50
2022/06/11 01:18:15;;;;;;;2.97;2.77;;;14.10;99.90;;;;;;5048907;28;20316;-51
2022/06/11 01:20:50;;;;;;;2.70;2.50;;;14.10;99.90;;;;;;5040623;28;20218;-50
2022/06/11 01:23:54;;;;;;;3.37;2.73;;;14.10;99.90;;;;;;5045975;28;20208;-51
2022/06/11 01:26:49;;;;;;;2.93;2.77;;;14.10;99.90;;;;;;5053632;28;20201;-51
2022/06/11 01:29:41;;;;;;;3.00;2.77;;;14.10;99.90;;;;;;5049231;28;20279;-51
2022/06/11 01:32:13;;;;;;;3.07;2.90;;;14.10;99.90;;;;;;5038850;28;20209;-51
2022/06/11 01:34:45;;;;;;;3.67;2.63;;;14.10;99.90;;;;;;5045128;28;20198;-50
2022/06/11 01:37:21;;;;;;;2.77;2.57;;;14.00;99.90;;;;;;5052536;28;20225;-51
2022/06/11 01:39:52;;;;;;;2.63;2.53;;;14.00;99.90;;;;;;5046965;28;20251;-51
2022/06/11 01:42:25;;;;;;;3.10;2.90;;;14.00;99.90;;;;;;5033180;28;20206;-51
2022/06/11 01:45:04;;;;;;;4.17;3.20;;;13.90;99.90;;;;;;5038830;28;20284;-51
2022/06/11 01:47:32;;;;;;;3.03;2.73;;;13.80;99.90;;;;;;5032973;28;20232;-51
2022/06/11 01:50:00;;;;;;;2.80;2.60;;;13.80;99.90;;;;;;5033001;28;20305;-51
2022/06/11 01:52:47;;;;;;;3.40;3.20;;;13.80;99.90;;;;;;5032702;28;20264;-51
2022/06/11 01:55:27;;;;;;;2.67;2.47;;;13.80;99.90;;;;;;5044222;28;20202;-51
2022/06/11 01:58:19;;;;;;;2.83;2.63;;;13.70;99.90;;;;;;5050313;28;20768;-50
2022/06/11 02:00:58;;;;;;;2.57;2.47;;;13.70;99.90;;;;;;5035628;28;20222;-50
2022/06/11 02:03:34;;;;;;;2.30;2.10;;;13.70;99.90;;;;;;5038464;28;20202;-50
2022/06/11 02:06:16;;;;;;;2.90;2.70;;;13.70;99.90;;;;;;5032625;28;20233;-50
2022/06/11 02:08:55;;;;;;;3.87;3.60;;;13.70;99.90;;;;;;5037917;28;20742;-51
2022/06/11 02:11:31;;;;;;;3.17;2.87;;;13.60;99.90;;;;;;5040641;28;20217;-50
2022/06/11 02:14:06;;;;;;;3.20;2.93;;;13.60;99.90;;;;;;5032733;28;20213;-50
2022/06/11 02:16:38;;;;;;;3.67;2.77;;;13.60;99.90;;;;;;5045860;28;20282;-50
2022/06/11 02:19:09;;;;;;;2.37;2.27;;;13.50;99.90;;;;;;5041219;28;20202;-50
2022/06/11 02:21:43;;;;;;;2.73;2.63;;;13.50;99.90;;;;;;5042269;28;20202;-51
2022/06/11 02:24:13;;;;;;;3.30;3.10;;;13.50;99.90;;;;;;5043984;28;20198;-51
2022/06/11 02:26:45;;;;;;;2.87;2.77;;;13.50;99.90;;;;;;5052224;28;20668;-51
2022/06/11 02:29:14;;;;;;;2.57;2.17;;;13.50;99.90;;;;;;5051368;28;20613;-51
2022/06/11 02:31:45;;;;;;;2.97;2.80;;;13.50;99.90;;;;;;5043498;28;20283;-51
2022/06/11 02:34:15;;;;;;;2.20;2.10;;;13.50;99.90;;;;;;5049587;28;20208;-51
2022/06/11 02:36:49;;;;;;;2.63;2.43;;;13.50;99.90;;;;;;5035575;28;20218;-50
2022/06/11 02:39:16;;;;;;;3.10;2.90;;;13.40;99.90;;;;;;5031928;28;20292;-51
2022/06/11 02:41:43;;;;;;;2.80;2.53;;;13.40;99.90;;;;;;5031899;28;20203;-51
2022/06/11 02:44:10;;;;;;;2.00;1.90;;;13.40;99.90;;;;;;5040842;28;20244;-50
2022/06/11 02:46:43;;;;;;;2.17;2.07;;;13.40;99.90;;;;;;5046859;28;20201;-52
2022/06/11 02:49:15;;;;;;;3.20;2.90;;;13.40;99.90;;;;;;5043638;28;20193;-50
2022/06/11 02:51:42;;;;;;;3.50;2.67;;;13.30;99.90;;;;;;5051540;28;20263;-52
2022/06/11 02:54:09;;;;;;;2.37;2.33;;;13.30;99.90;;;;;;5051514;28;20202;-51
2022/06/11 02:56:37;;;;;;;5.70;2.63;;;13.30;99.90;;;;;;5049173;28;20702;-52
2022/06/11 02:59:05;;;;;;;2.10;2.00;;;13.30;99.90;;;;;;5042333;28;20263;-51
2022/06/11 03:01:32;;;;;;;4.97;3.47;;;13.30;99.90;;;;;;5036988;28;20280;-51
2022/06/11 03:04:01;;;;;;;6.60;3.30;;;13.20;99.90;;;;;;5032009;28;20211;-52
2022/06/11 03:06:30;;;;;;;9.43;3.13;;;13.20;99.90;;;;;;5035046;28;20251;-50
2022/06/11 03:08:59;;;;;;;2.50;2.30;;;13.20;99.90;;;;;;5042014;28;20268;-52
2022/06/11 03:11:27;;;;;;;2.80;2.60;;;13.20;99.90;;;;;;5032828;28;20202;-52
2022/06/11 03:13:54;;;;;;;3.47;3.23;;;13.10;99.90;;;;;;5041910;28;20255;-51
2022/06/11 03:16:21;;;;;;;3.10;2.80;;;13.00;99.90;;;;;;5032328;28;20212;-51
2022/06/11 03:18:49;;;;;;;3.13;2.93;;;13.00;99.90;;;;;;5034329;28;20205;-51
2022/06/11 03:21:18;;;;;;;3.10;2.90;;;13.00;99.90;;;;;;5043169;28;20206;-51
2022/06/11 03:23:46;;;;;;;3.83;2.60;;;12.90;99.90;;;;;;5041298;28;20198;-51
2022/06/11 03:26:13;;;;;;;2.87;2.70;;;12.90;99.90;;;;;;5033141;28;20199;-52
2022/06/11 03:28:41;;;;;;;2.50;2.30;;;12.90;99.90;;;;;;5039702;28;20560;-51
2022/06/11 03:31:08;;;;;;;3.20;2.63;;;12.90;99.90;;;;;;5031300;28;20231;-50
2022/06/11 03:33:36;;;;;;;2.83;2.63;;;13.00;99.90;;;;;;5039587;28;20545;-51
2022/06/11 03:36:05;;;;;;;4.50;2.67;;;13.00;99.90;;;;;;5051212;28;20202;-51
2022/06/11 03:38:34;;;;;;;3.57;3.37;;;13.00;99.90;;;;;;5052601;28;20293;-51
2022/06/11 03:41:01;;;;;;;3.00;2.60;;;13.00;99.90;;;;;;5049377;28;20225;-50
2022/06/11 03:43:29;;;;;;;7.70;2.73;;;13.00;99.90;;;;;;5048370;28;20212;-52
2022/06/11 03:45:56;;;;;;;2.77;2.30;;;13.00;99.90;;;;;;5048649;28;20202;-51
2022/06/11 03:48:23;;;;;;;3.53;3.27;;;13.00;99.90;;;;;;5032447;28;20229;-50
2022/06/11 03:50:51;;;;;;;2.43;2.33;;;13.00;99.90;;;;;;5035984;28;20217;-51
2022/06/11 03:53:18;;;;;;;4.80;3.00;;;13.00;99.90;;;;;;5038443;28;20194;-50
2022/06/11 03:55:46;;;;;;;3.13;2.67;;;13.00;99.90;;;;;;5041557;28;20206;-50
2022/06/11 03:58:14;;;;;;;3.57;3.27;;;13.10;99.90;;;;;;5052268;28;20221;-50
2022/06/11 04:03:27;;;;;;;2.70;2.50;;;13.10;99.90;;;;;;5038979;28;20206;-50
2022/06/11 04:05:55;;;;;;;2.83;2.70;;;13.10;99.90;;;;;;5038600;28;20198;-51
2022/06/11 04:08:23;;;;;;;3.47;3.03;;;13.20;99.90;;;;;;5043206;28;20194;-51
2022/06/11 04:10:54;;;;;;;2.90;2.70;;;13.20;99.90;;;;;;5046066;28;20218;-50
2022/06/11 04:13:22;;;;;;;3.13;2.90;;;13.20;99.90;;;;;;5055009;28;20241;-51
2022/06/11 04:15:50;;;;;;;3.03;2.83;;;13.30;99.90;;;;;;5055205;28;20202;-50
2022/06/11 04:18:33;;;;;;;3.03;2.83;;;13.30;99.90;;;;;;5054000;28;20217;-51
2022/06/11 04:21:02;;;;;;;3.07;2.77;;;13.40;99.90;;;;;;5048963;28;20229;-51
2022/06/11 04:23:30;;;;;;;2.60;2.50;;;13.50;99.90;;;;;;5048024;28;20259;-50
2022/06/11 04:26:00;;;;;;;4.50;2.70;;;13.60;99.90;;;;;;5047664;28;20201;-51
2022/06/11 04:28:29;;;;;;;2.73;2.37;;;13.60;99.90;;;;;;5051995;28;20553;-51
2022/06/11 04:30:56;;;;;;;3.73;2.63;;;13.70;99.90;;;;;;5045118;28;20240;-51
2022/06/11 04:33:23;;;;;;;2.97;2.77;;;13.80;99.90;;;;;;5046120;28;20209;-50
2022/06/11 04:35:50;;;;;;;3.80;2.70;;;13.80;99.90;;;;;;5052298;28;20248;-51
2022/06/11 04:38:18;;;;;;;3.00;2.90;;;13.90;99.90;;;;;;5052827;28;20267;-50
2022/06/11 04:40:47;;;;;;;2.70;2.30;;;14.00;99.90;;;;;;5042346;28;20237;-51
2022/06/11 04:43:16;;;;;;;2.27;2.17;;;14.20;99.90;;;;;;5047796;28;20206;-51
2022/06/11 04:45:43;;;;;;;2.33;2.13;;;14.30;99.90;;;;;;5050729;28;20213;-51
2022/06/11 04:48:10;;;;;;;2.20;2.00;;;14.40;99.90;;;;;;5044270;28;20198;-50
2022/06/11 04:50:37;;;;;;;2.37;2.13;;;14.50;99.90;;;;;;5041144;28;20237;-50
2022/06/11 04:53:06;;;;;;;2.13;2.10;;;14.60;99.90;;;;;;5051359;28;20229;-52
2022/06/11 04:55:33;;;;;;;3.27;2.93;;;14.70;99.90;;;;;;5052230;28;20225;-51
2022/06/11 04:58:01;;;;;;;2.67;2.57;;;14.80;99.90;;;;;;5048315;28;20221;-50
2022/06/11 05:00:32;;;;;;;2.77;2.57;;;15.00;99.90;;;;;;5050023;28;20721;-51
2022/06/11 05:02:59;;;;;;;2.57;2.47;;;15.30;99.90;;;;;;5044877;28;20229;-50
2022/06/11 05:05:27;;;;;;;3.77;2.53;;;15.70;99.90;;;;;;5040617;28;20268;-51
2022/06/11 05:07:56;;;;;;;2.53;2.30;;;16.30;99.90;;;;;;5042927;28;20213;-51
2022/06/11 05:10:26;;;;;;;1.77;1.73;;;17.00;99.90;;;;;;5046651;28;20218;-51
2022/06/11 05:12:53;;;;;;;2.80;2.60;;;17.90;99.90;;;;;;5042135;28;20253;-51
2022/06/11 05:15:21;;;;;;;1.80;1.80;;;18.60;99.90;;;;;;5038287;28;20671;-51
2022/06/11 05:17:50;;;;;;;1.93;1.80;;;19.30;99.90;;;;;;5044032;28;20272;-51
2022/06/11 05:20:18;;;;;;;2.37;2.23;;;20.10;99.90;;;;;;5046114;28;20271;-51
2022/06/11 05:22:47;;;;;;;1.93;1.90;;;21.10;99.90;;;;;;5050788;28;20285;-51
2022/06/11 05:25:17;;;;;;;3.93;2.07;;;21.30;99.90;;;;;;5051351;28;20194;-51
2022/06/11 05:27:46;;;;;;;4.37;2.03;;;21.60;99.90;;;;;;5051657;28;20201;-52
2022/06/11 05:30:17;;;;;;;2.93;1.67;;;21.80;99.90;;;;;;5046661;28;20223;-51
2022/06/11 05:32:45;;;;;;;1.53;1.43;;;22.10;99.90;;;;;;5042120;28;20198;-51
2022/06/11 05:35:17;;;;;;;1.77;1.67;;;22.70;99.90;;;;;;5052186;28;20212;-51
2022/06/11 05:37:45;;;;;;;1.73;1.63;;;22.80;99.90;;;;;;5042737;28;20222;-51
2022/06/11 05:40:15;;;;;;;2.30;2.17;;;22.80;99.90;;;;;;5032835;28;20309;-53
2022/06/11 05:42:47;;;;;;;1.60;1.20;;;23.20;99.90;;;;;;5043362;28;20214;-52
2022/06/11 05:45:15;;;;;;;1.80;1.63;;;23.30;99.90;;;;;;5044756;28;20256;-52
2022/06/11 05:47:44;;;;;;;2.73;1.90;;;23.10;99.90;;;;;;5039931;28;20285;-51
2022/06/11 05:50:14;;;;;;;2.03;1.53;;;23.50;99.90;;;;;;5039870;28;20221;-52
2022/06/11 05:52:45;;;;;;;1.20;1.20;;;23.90;99.90;;;;;;5050540;28;20207;-52
2022/06/11 05:55:15;;;;;;;1.23;1.23;;;24.30;99.90;;;;;;5047790;28;20190;-52
2022/06/11 05:57:43;;;;;;;1.90;1.00;;;24.70;99.90;;;;;;5043096;28;20253;-51
2022/06/11 06:00:13;;;;;;;1.10;1.00;;;25.10;99.90;;;;;;5037012;28;20253;-52
2022/06/11 06:02:41;;;;;;;1.23;1.23;;;25.10;99.90;;;;;;5038087;28;20610;-52
2022/06/11 06:05:09;;;;;;;1.07;1.03;;;25.30;99.90;;;;;;5033746;28;20289;-52
2022/06/11 06:07:37;;;;;;;0.67;0.67;;;25.70;99.90;;;;;;5045639;28;20625;-52
2022/06/11 06:10:06;;;;;;;1.60;1.50;;;25.50;99.90;;;;;;5046578;28;20222;-52
2022/06/11 06:12:34;;;;;;;1.00;1.00;;;25.70;99.90;;;;;;5045473;28;20205;-52
2022/06/11 06:15:05;;;;;;;1.60;1.20;;;26.00;99.90;;;;;;5042063;28;20207;-52
2022/06/11 06:17:33;;;;;;;1.30;1.20;;;26.00;99.90;;;;;;5040183;28;20229;-51
2022/06/11 06:20:00;;;;;;;0.83;0.83;;;25.80;99.90;;;;;;5043722;28;20715;-52
2022/06/11 06:22:27;;;;;;;1.07;0.90;;;26.10;99.90;;;;;;5037632;28;20275;-52
2022/06/11 06:24:54;;;;;;;1.47;1.37;;;26.20;99.90;;;;;;5049572;28;20719;-51
2022/06/11 06:27:23;;;;;;;0.90;0.90;;;26.40;99.90;;;;;;5045157;28;20203;-52
2022/06/11 06:29:50;;;;;;;0.57;0.57;;;26.30;99.90;;;;;;5048383;28;20263;-51
2022/06/11 06:32:17;;;;;;;1.17;1.05;;;26.80;99.90;;;;;;5044093;28;20527;-52
2022/06/11 06:34:44;;;;;;;0.70;0.70;;;27.00;99.90;;;;;;5040095;28;20672;-51
2022/06/11 06:37:12;;;;;;;0.70;0.70;;;27.50;99.90;;;;;;5046015;28;20202;-52
2022/06/11 06:39:39;;;;;;;4.43;0.93;;;27.90;99.90;;;;;;5049755;28;20250;-52
2022/06/11 06:42:08;;;;;;;1.50;0.95;;;27.80;99.90;;;;;;5037426;28;20226;-52
2022/06/11 06:44:36;;;;;;;1.48;1.05;;;27.90;99.90;;;;;;5050022;28;20292;-51
2022/06/11 06:47:04;;;;;;;1.90;0.95;;;28.10;99.90;;;;;;5049652;28;20205;-51
2022/06/11 06:49:31;;;;;;;2.05;0.75;;;28.20;99.90;;;;;;5046535;28;20209;-51
2022/06/11 06:51:58;;;;;;;0.70;0.70;;;27.60;99.90;;;;;;5042722;28;20641;-51
2022/06/11 06:54:25;;;;;;;0.75;0.75;;;27.40;99.90;;;;;;5051343;28;20626;-52
2022/06/11 06:56:52;;;;;;;2.40;1.13;;;27.90;99.90;;;;;;5045001;28;20244;-52
2022/06/11 06:59:19;;;;;;;1.17;1.02;;;28.30;99.90;;;;;;5046288;28;20221;-52
2022/06/11 07:01:48;;;;;;;1.00;0.98;;;28.90;99.90;;;;;;5047061;28;20263;-52
2022/06/11 07:04:15;;;;;;;0.95;0.95;;;29.10;99.10;;;;;;5042340;28;20281;-51
2022/06/11 07:06:42;;;;;;;0.95;0.95;;;29.50;98.40;;;;;;5050025;28;20206;-52
2022/06/11 07:09:10;;;;;;;0.98;0.80;;;29.20;98.80;;;;;;5049728;28;20190;-52
2022/06/11 07:11:37;;;;;;;0.77;0.77;;;29.10;98.10;;;;;;5037920;28;20222;-51
2022/06/11 07:14:04;;;;;;;1.50;0.90;;;29.20;99.90;;;;;;5041231;28;20201;-52
2022/06/11 07:16:37;;;;;;;2.33;0.82;;;29.00;98.40;;;;;;5036028;28;20584;-52
2022/06/11 07:19:12;;;;;;;1.48;0.77;;;29.00;97.80;;;;;;5041103;28;20227;-52
2022/06/11 07:21:42;;;;;;;0.70;0.70;;;28.70;98.90;;;;;;5041554;28;20201;-52
2022/06/11 07:24:13;;;;;;;1.98;0.93;;;28.20;97.70;;;;;;5036733;28;20254;-52
2022/06/11 07:26:44;;;;;;;4.55;1.13;;;28.40;98.80;;;;;;5041850;28;20205;-52
2022/06/11 07:29:16;;;;;;;0.88;0.73;;;28.60;97.40;;;;;;5042814;28;20198;-52
2022/06/11 07:31:46;;;;;;;1.70;1.00;;;28.80;98.40;;;;;;5053711;28;20251;-52
2022/06/11 07:34:16;;;;;;;0.70;0.70;;;29.20;98.50;;;;;;5034118;28;20302;-53
2022/06/11 07:36:43;;;;;;;1.08;0.82;;;29.50;97.70;;;;;;5047487;28;20267;-53
2022/06/11 07:39:10;;;;;;;0.80;0.80;;;30.00;98.60;;;;;;5052707;28;20295;-53
2022/06/11 07:41:38;;;;;;;1.42;0.70;;;29.70;96.60;;;;;;5047819;28;20268;-52
2022/06/11 07:44:05;;;;;;;0.85;0.85;;;29.00;97.00;;;;;;5044784;28;20202;-53
2022/06/11 07:46:32;;;;;;;1.08;0.70;;;29.10;98.00;;;;;;5054241;28;20231;-53
2022/06/11 07:48:59;;;;;;;2.38;0.77;;;29.70;97.10;;;;;;5054031;28;20225;-52
2022/06/11 07:51:28;;;;;;;0.85;0.80;;;29.90;96.80;;;;;;5052642;28;20260;-52
2022/06/11 07:53:55;;;;;;;2.58;0.80;;;30.40;93.50;;;;;;5051708;28;20247;-52
2022/06/11 07:56:22;;;;;;;0.70;0.63;;;30.50;94.50;;;;;;5042790;28;20203;-52
2022/06/11 07:58:50;;;;;;;1.45;1.00;;;31.10;93.60;;;;;;5045686;28;20210;-53
2022/06/11 08:01:17;;;;;;;2.17;0.70;;;30.50;95.00;;;;;;5050525;28;20738;-52
2022/06/11 08:03:44;;;;;;;2.38;0.50;;;30.90;94.30;;;;;;5052359;28;20287;-52
2022/06/11 08:06:11;;;;;;;0.60;0.60;;;31.10;93.90;;;;;;5047967;28;20635;-53
2022/06/11 08:08:40;;;;;;;0.65;0.65;;;30.80;93.40;;;;;;5045420;28;20253;-53
2022/06/11 08:11:07;;;;;;;0.68;0.68;;;31.20;92.30;;;;;;5050408;28;20225;-53
2022/06/11 08:13:34;;;;;;;3.85;3.22;;;30.90;94.00;;;;;;5053112;28;20267;-52
2022/06/11 08:16:02;;;;;;;11.85;10.70;;;31.10;91.20;;;;;;5042825;28;20700;-52
2022/06/11 08:18:31;;;;;;;5.18;4.88;;;30.50;92.50;;;;;;5048336;28;20253;-52
2022/06/11 08:20:59;;;;;;;2.38;1.33;;;30.80;91.90;;;;;;5053967;28;20302;-52
2022/06/11 08:23:26;;;;;;;1.10;0.68;;;31.00;95.00;;;;;;5053750;28;20205;-52
2022/06/11 08:25:55;;;;;;;0.95;0.90;;;30.50;94.40;;;;;;5054024;28;20202;-52
2022/06/11 08:28:23;;;;;;;0.88;0.88;;;31.00;93.60;;;;;;5041372;28;20194;-53
2022/06/11 08:30:51;;;;;;;0.98;0.98;;;31.20;93.90;;;;;;5053531;28;20380;-53
2022/06/11 08:33:18;;;;;;;1.48;1.25;;;31.40;93.30;;;;;;5053479;28;20275;-52
2022/06/11 08:35:45;;;;;;;1.50;0.95;;;31.50;92.40;;;;;;5053649;28;20209;-53
2022/06/11 08:38:13;;;;;;;0.75;0.75;;;31.20;92.30;;;;;;5053475;28;20197;-52
2022/06/11 08:40:43;;;;;;;0.80;0.80;;;31.30;92.70;;;;;;5044727;28;20222;-52
2022/06/11 08:43:17;;;;;;;1.08;0.88;;;31.20;94.00;;;;;;5041902;28;20194;-53
2022/06/11 08:45:47;;;;;;;1.63;0.80;;;31.20;94.90;;;;;;5040418;28;20201;-52
2022/06/11 08:48:26;;;;;;;1.25;1.00;;;30.80;92.50;;;;;;5044933;28;20741;-52
2022/06/11 08:51:07;;;;;;;1.08;0.90;;;30.70;92.90;;;;;;5043232;28;20228;-52
2022/06/11 08:53:38;;;;;;;1.08;0.73;;;30.50;92.90;;;;;;5049338;28;20205;-52
2022/06/11 08:56:08;;;;;;;0.95;0.90;;;31.00;92.80;;;;;;5040462;28;20198;-53
2022/06/11 08:58:54;;;;;;;1.15;1.08;;;31.20;92.60;;;;;;5032870;28;20254;-53
2022/06/11 09:01:31;;;;;;;2.33;1.13;;;31.40;92.30;;;;;;5049313;28;20248;-53
2022/06/11 09:04:15;;;;;;;1.98;1.88;;;31.80;93.90;;;;;;5045598;28;20698;-52
2022/06/11 09:07:07;;;;;;;2.97;2.33;;;31.70;93.40;;;;;;5048209;28;20194;-52
2022/06/11 09:09:48;;;;;;;3.00;2.80;;;31.20;93.40;;;;;;5049397;28;20291;-52
2022/06/11 09:12:37;;;;;;;3.30;3.00;;;30.60;95.10;;;;;;5044843;28;20275;-52
2022/06/11 09:15:19;;;;;;;2.42;2.17;;;30.30;96.50;;;;;;5048525;28;20323;-52
2022/06/11 09:18:13;;;;;;;3.00;2.80;;;30.20;99.70;;;;;;5041198;28;20286;-52
2022/06/11 09:20:52;;;;;;;2.75;2.55;;;31.00;96.00;;;;;;5046721;28;20218;-52
2022/06/11 09:23:39;;;;;;;2.78;2.67;;;31.60;96.60;;;;;;5048339;28;20197;-51
2022/06/11 09:26:24;;;;;;;3.28;3.17;;;30.80;97.00;;;;;;5049388;28;20257;-52
2022/06/11 09:29:05;;;;;;;3.45;2.60;;;29.60;96.00;;;;;;5045076;28;20198;-52
2022/06/11 09:31:43;;;;;;;2.85;2.75;;;29.20;98.00;;;;;;5045038;28;20256;-52
2022/06/11 09:34:12;;;;;;;4.93;2.28;;;28.80;97.80;;;;;;5039336;28;20676;-52
2022/06/11 09:36:41;;;;;;;2.17;2.08;;;29.60;98.00;;;;;;5040908;28;20220;-51
2022/06/11 09:39:33;;;;;;;5.95;3.88;;;30.20;95.00;;;;;;5048786;28;20311;-51
2022/06/11 09:42:21;;;;;;;2.20;2.10;;;30.60;94.70;;;;;;5041917;28;20210;-51
2022/06/11 09:44:53;;;;;;;2.10;2.08;;;30.90;95.00;;;;;;5040375;28;20286;-52
2022/06/11 09:47:29;;;;;;;2.72;2.47;;;31.60;95.90;;;;;;5036825;28;20228;-52
2022/06/11 09:50:09;;;;;;;2.00;1.75;;;30.80;93.00;;;;;;5046446;28;20213;-52
2022/06/11 09:52:42;;;;;;;3.70;2.20;;;30.60;94.60;;;;;;5037105;28;20198;-51
2022/06/11 09:55:22;;;;;;;1.30;1.23;;;30.50;95.10;;;;;;5052056;28;20701;-51
2022/06/11 09:58:02;;;;;;;1.80;1.52;;;30.20;93.70;;;;;;5085285;22;20243;-49
2022/06/11 10:00:31;;;;;;;2.20;2.00;;;30.80;92.50;;;;;;5112963;28;20236;-48
2022/06/11 10:03:11;;;;;;;3.53;1.98;;;30.90;92.30;;;;;;5097897;28;20200;-48
2022/06/11 10:05:47;;;;;;;1.55;1.50;;;31.00;92.50;;;;;;5110738;28;21190;-48
2022/06/11 10:08:22;;;;;;;1.35;1.30;;;31.10;92.10;;;;;;5092566;28;20696;-48
2022/06/11 10:10:51;;;;;;;2.50;1.95;;;31.40;92.90;;;;;;5083358;28;20200;-47
2022/06/11 10:13:32;;;;;;;2.00;1.90;;;31.50;92.10;;;;;;5086979;28;20197;-47
2022/06/11 10:16:07;;;;;;;1.92;1.90;;;31.60;92.70;;;;;;5072301;28;20278;-48
2022/06/11 10:18:38;;;;;;;2.15;2.03;;;31.60;92.90;;;;;;5079881;28;20231;-47
2022/06/11 10:21:09;;;;;;;1.73;1.70;;;30.30;93.00;;;;;;5089677;28;20200;-47
2022/06/11 10:23:43;;;;;;;2.15;1.98;;;30.80;94.90;;;;;;5089864;28;20197;-47
2022/06/11 10:26:18;;;;;;;2.05;1.73;;;31.10;92.20;;;;;;5088876;28;20717;-48
2022/06/11 10:28:50;;;;;;;1.95;1.85;;;31.20;93.50;;;;;;5080406;28;20570;-47
2022/06/11 10:31:21;;;;;;;2.25;1.48;;;30.10;92.70;;;;;;5078779;28;20291;-48
2022/06/11 10:33:55;;;;;;;2.17;1.60;;;29.60;93.80;;;;;;5084167;28;20270;-48
2022/06/11 10:36:27;;;;;;;2.17;2.05;;;30.00;95.60;;;;;;5083015;28;20193;-48
2022/06/11 10:38:57;;;;;;;2.15;1.30;;;30.30;92.30;;;;;;5086950;28;20649;-48
2022/06/11 10:41:30;;;;;;;2.70;1.65;;;30.40;93.90;;;;;;5083716;28;20202;-47
2022/06/11 10:44:13;;;;;;;1.60;1.52;;;29.80;92.90;;;;;;5083737;28;20196;-48
2022/06/11 10:46:40;;;;;;;1.35;1.30;;;29.80;93.50;;;;;;5082359;28;20201;-47
2022/06/11 10:49:14;;;;;;;1.35;1.20;;;29.90;94.80;;;;;;5088077;28;20292;-48
2022/06/11 10:51:45;;;;;;;1.98;1.90;;;30.30;92.00;;;;;;5081599;28;20261;-47
2022/06/11 10:54:17;;;;;;;1.30;1.30;;;29.80;92.90;;;;;;5079836;28;20193;-48
2022/06/11 10:56:49;;;;;;;1.45;1.20;;;29.70;93.70;;;;;;5071629;28;20563;-47
2022/06/11 10:59:23;;;;;;;1.08;1.08;;;29.60;92.10;;;;;;5077721;28;20225;-47
2022/06/11 11:01:57;;;;;;;1.33;1.33;;;29.60;92.80;;;;;;5082510;28;20200;-47
2022/06/11 11:04:31;;;;;;;1.45;0.93;;;29.30;94.30;;;;;;5075962;28;20265;-47
2022/06/11 11:07:19;;;;;;;1.02;1.00;;;29.20;93.10;;;;;;5087465;28;20200;-47
2022/06/11 11:09:47;;;;;;;1.10;1.00;;;28.70;95.80;;;;;;5087360;28;20611;-47
2022/06/11 11:12:24;;;;;;;1.27;1.27;;;28.20;94.90;;;;;;5082187;28;20253;-47
2022/06/11 11:15:12;;;;;;;1.33;1.02;;;28.10;95.10;;;;;;5082398;28;20188;-47
2022/06/11 11:17:46;;;;;;;1.02;1.02;;;28.00;93.10;;;;;;5086340;28;20233;-48
2022/06/11 11:20:37;;;;;;;1.30;1.25;;;27.80;94.10;;;;;;5084115;28;20705;-47
2022/06/11 11:23:14;;;;;;;1.73;1.00;;;27.60;95.80;;;;;;5086572;28;20215;-47
2022/06/11 11:25:44;;;;;;;1.95;1.13;;;27.60;93.00;;;;;;5090392;28;20200;-47
2022/06/11 11:28:25;;;;;;;2.00;1.45;;;27.60;93.10;;;;;;5082682;28;20221;-47
2022/06/11 11:31:06;;;;;;;1.10;1.10;;;27.90;92.90;;;;;;5071164;28;20659;-47
2022/06/11 11:33:35;;;;;;;1.10;1.00;;;27.70;91.80;;;;;;5088940;28;20273;-47
2022/06/11 11:36:14;;;;;;;1.15;0.68;;;27.40;93.60;;;;;;5087364;28;20196;-47
2022/06/11 11:38:41;;;;;;;0.80;0.80;;;27.20;93.20;;;;;;5089461;28;20269;-47
2022/06/11 11:41:25;;;;;;;1.10;1.00;;;27.20;95.80;;;;;;5087628;28;20213;-48
2022/06/11 11:43:58;;;;;;;0.60;0.60;;;26.70;93.70;;;;;;5071422;28;20205;-47
2022/06/11 11:46:28;;;;;;;0.98;0.98;;;26.70;93.50;;;;;;5081376;28;20631;-47
2022/06/11 11:48:57;;;;;;;1.33;0.70;;;26.60;96.30;;;;;;5085010;28;20231;-47
2022/06/11 11:51:33;;;;;;;1.38;0.60;;;26.40;94.40;;;;;;5073863;28;20279;-47
2022/06/11 11:54:04;;;;;;;0.90;0.90;;;26.40;92.70;;;;;;5087566;28;20211;-47
2022/06/11 11:56:36;;;;;;;0.60;0.60;;;26.20;94.20;;;;;;5084540;28;20725;-46
2022/06/11 11:59:10;;;;;;;0.60;0.60;;;26.00;91.90;;;;;;5078711;28;20268;-47
2022/06/11 12:01:37;;;;;;;1.17;0.63;;;25.90;94.50;;;;;;5079275;28;20196;-47
2022/06/11 12:04:12;;;;;;;1.75;0.95;;;26.10;94.20;;;;;;5087354;28;20200;-47
2022/06/11 12:06:46;;;;;;;2.75;1.38;;;26.00;93.90;;;;;;5086430;28;20636;-47
2022/06/11 12:09:24;;;;;;;1.23;0.70;;;25.50;92.50;;;;;;5080391;28;20662;-47
2022/06/11 12:11:59;;;;;;;1.37;0.70;;;25.40;95.00;;;;;;5084406;28;20257;-46
2022/06/11 12:14:32;;;;;;;0.70;0.70;;;25.50;95.60;;;;;;5079513;28;20227;-47
2022/06/11 12:17:13;;;;;;;0.77;0.60;;;25.30;96.60;;;;;;5091267;28;20818;-47
2022/06/11 12:19:43;;;;;;;0.50;0.50;;;25.40;96.10;;;;;;5092411;28;20702;-47
2022/06/11 12:22:25;;;;;;;0.63;0.60;;;25.50;94.90;;;;;;5092078;28;20196;-47
2022/06/11 12:24:54;;;;;;;0.93;0.80;;;25.60;93.50;;;;;;5084734;28;20200;-47
2022/06/11 12:27:28;;;;;;;0.83;0.70;;;25.40;95.50;;;;;;5094134;28;20228;-47
2022/06/11 12:30:01;;;;;;;0.60;0.60;;;25.60;95.80;;;;;;5092204;28;20197;-47
2022/06/11 12:32:30;;;;;;;0.60;0.60;;;25.50;93.90;;;;;;5075280;28;20251;-47
2022/06/11 12:35:00;;;;;;;0.77;0.77;;;25.40;94.50;;;;;;5091717;28;20666;-47
2022/06/11 12:37:37;;;;;;;0.80;0.80;;;25.40;94.20;;;;;;5091974;28;20217;-47
2022/06/11 12:40:25;;;;;;;1.07;0.60;;;25.40;95.50;;;;;;5083652;28;20216;-47
2022/06/11 12:43:05;;;;;;;0.70;0.60;;;25.30;94.70;;;;;;5082283;28;20293;-47
2022/06/11 12:45:39;;;;;;;0.77;0.60;;;25.30;95.80;;;;;;5091108;28;20196;-47
2022/06/11 12:48:32;;;;;;;0.50;0.50;;;25.30;93.80;;;;;;5089751;28;20217;-47
2022/06/11 12:51:04;;;;;;;0.97;0.50;;;25.30;94.20;;;;;;5089549;28;20247;-46
2022/06/11 12:53:50;;;;;;;1.03;0.60;;;25.00;94.20;;;;;;5083932;28;20598;-47
2022/06/11 12:56:28;;;;;;;1.57;1.47;;;25.00;95.40;;;;;;5087500;28;20197;-47
2022/06/11 12:59:28;;;;;;;1.47;0.50;;;25.00;94.30;;;;;;5090453;28;20232;-47
2022/06/11 13:02:07;;;;;;;1.00;0.60;;;24.80;94.00;;;;;;5055263;28;20239;-47
2022/06/11 13:05:10;;;;;;;1.23;0.70;;;24.70;95.70;;;;;;5086766;28;20197;-47
2022/06/11 13:07:43;;;;;;;0.90;0.90;;;24.80;94.70;;;;;;5076305;28;20220;-47
2022/06/11 13:10:31;;;;;;;0.83;0.73;;;24.80;95.30;;;;;;5073574;28;20725;-46
2022/06/11 13:13:18;;;;;;;0.73;0.60;;;24.80;97.70;;;;;;5076833;28;20250;-47
2022/06/11 13:15:56;;;;;;;0.80;0.73;;;24.90;95.60;;;;;;5085567;28;20253;-46